메인 페이지
METAR-TAF:

METAR-TAF

공항 :

털사, 오클라호마, 미국

위도: 36-11-51N, 경도: 095-53-11W, 고도: 206m

현재 날씨관측

예보는 1 시간 7분 전, 20:53시(UTC)에 발표되었습니다.
남남서13kt, 순간 최대 풍속 25kt
온도 22°C
습도 27%
기압 1020 hPa
시정: 16.1km
고도 7500ft 상공 구름 보통
고도 25000ft 상공 구름 많음

METAR: KTUL 192053Z 20013G25KT 10SM SCT075 BKN250 22/02 A3013 RMK AO2 PK WND 17026/2039 SLP201 T02170022 56031

시각: 17:00 (22:00 UTC)

예보

예보는 4 시간 36분 전, 17:24시(UTC)에 발표되었습니다.
예보 대상 시간: 19일 18시부터 20일 18시까지 (UTC)
15kt, 순간 최대 풍속 24kt
시정: 10km
고도 10000ft 상공 구름 보통
20일 0000시부터 (UTC)
10kt
시정: 10km
고도 15000ft 상공 구름 많음
20일 0700시부터 (UTC)
서북서9kt
시정: 10km
고도 8000ft 상공 흐림
일시적
20일 08시부터 20일 12시까지 (UTC)
시정: 8.0km
고도 2500ft 상공 구름 많음
약한비, 박무
20일 1200시부터 (UTC)
북서9kt
시정: 10km
고도 5000ft 상공 구름 많음

TAF: KTUL 191724Z 1918/2018 19015G24KT P6SM SCT100 FM200000 18010KT P6SM BKN150 FM200700 29009KT P6SM OVC080 TEMPO 2008/2012 5SM -RA BR BKN025 FM201200 31009KT P6SM BKN050

4,000개 이상의 공항 관측 자료 및 예보 (METAR 및 TAF 보고).

지도상에서 검색 가능한 기상관측소가 노란 점과 빨간 점으로 표시되어 있습니다.

기상관측소 명을 보려면 표시 위로 마우스를 이동하세요.

날씨 관측과 예보를 보려면 클릭하세요.

지도 변경 : 확대하려면 엑스 표시가 있는 녹색 버튼, 축소하려면 빼기 표시가 있는 녹색 버튼, 다음 페이지의 지도를 보려면 녹색 화살표를 클릭하세요.


METAR-TAF: